sensor_id;sensor_type;location;lat;lon;timestamp;P1;durP1;ratioP1;P2;durP2;ratioP2
60908;SDS011;46780;48.128;-1.704;2023-06-24T00:00:37;8.90;;;3.88;;
60908;SDS011;46780;48.128;-1.704;2023-06-24T00:03:05;12.07;;;4.00;;
60908;SDS011;46780;48.128;-1.704;2023-06-24T00:05:31;8.40;;;3.83;;
60908;SDS011;46780;48.128;-1.704;2023-06-24T00:07:58;9.02;;;3.85;;
60908;SDS011;46780;48.128;-1.704;2023-06-24T00:10:24;7.80;;;3.88;;
60908;SDS011;46780;48.128;-1.704;2023-06-24T00:12:51;7.22;;;3.55;;
60908;SDS011;46780;48.128;-1.704;2023-06-24T00:15:17;9.55;;;3.75;;
60908;SDS011;46780;48.128;-1.704;2023-06-24T00:17:44;8.38;;;3.80;;
60908;SDS011;46780;48.128;-1.704;2023-06-24T00:20:12;7.13;;;3.60;;
60908;SDS011;46780;48.128;-1.704;2023-06-24T00:22:38;8.65;;;3.50;;
60908;SDS011;46780;48.128;-1.704;2023-06-24T00:25:05;7.40;;;3.78;;
60908;SDS011;46780;48.128;-1.704;2023-06-24T00:27:32;7.20;;;3.60;;
60908;SDS011;46780;48.128;-1.704;2023-06-24T00:29:58;7.25;;;3.53;;
60908;SDS011;46780;48.128;-1.704;2023-06-24T00:32:25;7.55;;;3.72;;
60908;SDS011;46780;48.128;-1.704;2023-06-24T00:34:51;7.57;;;3.50;;
60908;SDS011;46780;48.128;-1.704;2023-06-24T00:37:19;8.15;;;3.78;;
60908;SDS011;46780;48.128;-1.704;2023-06-24T00:39:45;6.47;;;3.33;;
60908;SDS011;46780;48.128;-1.704;2023-06-24T00:42:12;8.68;;;3.75;;
60908;SDS011;46780;48.128;-1.704;2023-06-24T00:44:38;8.43;;;3.65;;
60908;SDS011;46780;48.128;-1.704;2023-06-24T00:47:06;6.85;;;3.53;;
60908;SDS011;46780;48.128;-1.704;2023-06-24T00:49:32;9.15;;;3.58;;
60908;SDS011;46780;48.128;-1.704;2023-06-24T00:51:59;8.30;;;3.60;;
60908;SDS011;46780;48.128;-1.704;2023-06-24T00:54:26;6.15;;;3.35;;
60908;SDS011;46780;48.128;-1.704;2023-06-24T00:56:53;7.65;;;3.60;;
60908;SDS011;46780;48.128;-1.704;2023-06-24T00:59:19;8.15;;;3.63;;
60908;SDS011;46780;48.128;-1.704;2023-06-24T01:01:46;8.13;;;3.78;;
60908;SDS011;46780;48.128;-1.704;2023-06-24T01:04:13;6.57;;;3.60;;
60908;SDS011;46780;48.128;-1.704;2023-06-24T01:06:39;6.97;;;3.50;;
60908;SDS011;46780;48.128;-1.704;2023-06-24T01:09:07;7.05;;;3.42;;
60908;SDS011;46780;48.128;-1.704;2023-06-24T01:11:34;7.20;;;3.30;;
60908;SDS011;46780;48.128;-1.704;2023-06-24T01:14:01;7.18;;;3.50;;
60908;SDS011;46780;48.128;-1.704;2023-06-24T01:16:30;7.25;;;3.70;;
60908;SDS011;46780;48.128;-1.704;2023-06-24T01:19:01;6.97;;;3.72;;
60908;SDS011;46780;48.128;-1.704;2023-06-24T01:21:42;6.82;;;3.50;;
60908;SDS011;46780;48.128;-1.704;2023-06-24T01:24:21;7.70;;;3.85;;
60908;SDS011;46780;48.128;-1.704;2023-06-24T01:27:18;7.97;;;4.00;;
60908;SDS011;46780;48.128;-1.704;2023-06-24T01:30:08;7.38;;;3.42;;
60908;SDS011;46780;48.128;-1.704;2023-06-24T01:32:50;7.95;;;3.67;;
60908;SDS011;46780;48.128;-1.704;2023-06-24T01:35:20;9.02;;;4.03;;
60908;SDS011;46780;48.128;-1.704;2023-06-24T01:37:51;7.85;;;3.70;;
60908;SDS011;46780;48.128;-1.704;2023-06-24T01:40:20;7.00;;;3.70;;
60908;SDS011;46780;48.128;-1.704;2023-06-24T01:42:55;7.07;;;3.67;;
60908;SDS011;46780;48.128;-1.704;2023-06-24T01:45:25;7.95;;;3.75;;
60908;SDS011;46780;48.128;-1.704;2023-06-24T01:47:57;8.63;;;3.70;;
60908;SDS011;46780;48.128;-1.704;2023-06-24T01:50:27;7.25;;;3.78;;
60908;SDS011;46780;48.128;-1.704;2023-06-24T01:52:57;7.57;;;4.10;;
60908;SDS011;46780;48.128;-1.704;2023-06-24T01:55:25;9.25;;;4.30;;
60908;SDS011;46780;48.128;-1.704;2023-06-24T01:57:53;7.63;;;4.15;;
60908;SDS011;46780;48.128;-1.704;2023-06-24T02:00:22;9.90;;;4.47;;
60908;SDS011;46780;48.128;-1.704;2023-06-24T02:02:49;8.77;;;4.05;;
60908;SDS011;46780;48.128;-1.704;2023-06-24T02:05:18;9.52;;;4.22;;
60908;SDS011;46780;48.128;-1.704;2023-06-24T02:07:46;8.50;;;4.20;;
60908;SDS011;46780;48.128;-1.704;2023-06-24T02:10:14;9.40;;;4.18;;
60908;SDS011;46780;48.128;-1.704;2023-06-24T02:12:42;7.97;;;4.10;;
60908;SDS011;46780;48.128;-1.704;2023-06-24T02:15:10;8.13;;;4.20;;
60908;SDS011;46780;48.128;-1.704;2023-06-24T02:17:38;9.30;;;4.38;;
60908;SDS011;46780;48.128;-1.704;2023-06-24T02:20:06;7.60;;;3.80;;
60908;SDS011;46780;48.128;-1.704;2023-06-24T02:22:36;9.75;;;4.25;;
60908;SDS011;46780;48.128;-1.704;2023-06-24T02:25:05;8.10;;;4.30;;
60908;SDS011;46780;48.128;-1.704;2023-06-24T02:27:32;8.85;;;4.07;;
60908;SDS011;46780;48.128;-1.704;2023-06-24T02:30:00;8.75;;;3.97;;
60908;SDS011;46780;48.128;-1.704;2023-06-24T02:32:27;9.77;;;4.35;;
60908;SDS011;46780;48.128;-1.704;2023-06-24T02:34:54;8.82;;;4.45;;
60908;SDS011;46780;48.128;-1.704;2023-06-24T02:37:22;8.18;;;4.20;;
60908;SDS011;46780;48.128;-1.704;2023-06-24T02:39:50;9.75;;;4.45;;
60908;SDS011;46780;48.128;-1.704;2023-06-24T02:42:17;8.48;;;4.28;;
60908;SDS011;46780;48.128;-1.704;2023-06-24T02:44:43;8.75;;;4.60;;
60908;SDS011;46780;48.128;-1.704;2023-06-24T02:47:10;8.32;;;4.03;;
60908;SDS011;46780;48.128;-1.704;2023-06-24T02:49:40;9.55;;;4.30;;
60908;SDS011;46780;48.128;-1.704;2023-06-24T02:52:10;8.93;;;4.32;;
60908;SDS011;46780;48.128;-1.704;2023-06-24T02:54:36;9.30;;;4.80;;
60908;SDS011;46780;48.128;-1.704;2023-06-24T02:57:05;8.52;;;4.53;;
60908;SDS011;46780;48.128;-1.704;2023-06-24T02:59:32;9.57;;;4.60;;
60908;SDS011;46780;48.128;-1.704;2023-06-24T03:01:59;9.07;;;4.70;;
60908;SDS011;46780;48.128;-1.704;2023-06-24T03:04:27;9.52;;;4.63;;
60908;SDS011;46780;48.128;-1.704;2023-06-24T03:06:54;9.65;;;4.70;;
60908;SDS011;46780;48.128;-1.704;2023-06-24T03:09:21;11.85;;;4.53;;
60908;SDS011;46780;48.128;-1.704;2023-06-24T03:11:47;9.18;;;4.75;;
60908;SDS011;46780;48.128;-1.704;2023-06-24T03:14:15;7.97;;;4.38;;
60908;SDS011;46780;48.128;-1.704;2023-06-24T03:16:41;10.75;;;4.95;;
60908;SDS011;46780;48.128;-1.704;2023-06-24T03:19:08;8.77;;;5.20;;
60908;SDS011;46780;48.128;-1.704;2023-06-24T03:21:34;9.15;;;4.78;;
60908;SDS011;46780;48.128;-1.704;2023-06-24T03:24:01;9.05;;;4.90;;
60908;SDS011;46780;48.128;-1.704;2023-06-24T03:26:31;9.40;;;5.07;;
60908;SDS011;46780;48.128;-1.704;2023-06-24T03:28:58;9.15;;;4.38;;
60908;SDS011;46780;48.128;-1.704;2023-06-24T03:31:26;9.82;;;4.63;;
60908;SDS011;46780;48.128;-1.704;2023-06-24T03:33:53;9.48;;;5.10;;
60908;SDS011;46780;48.128;-1.704;2023-06-24T03:36:19;8.48;;;5.00;;
60908;SDS011;46780;48.128;-1.704;2023-06-24T03:38:46;8.15;;;4.63;;
60908;SDS011;46780;48.128;-1.704;2023-06-24T03:41:12;10.35;;;4.93;;
60908;SDS011;46780;48.128;-1.704;2023-06-24T03:43:39;10.27;;;4.90;;
60908;SDS011;46780;48.128;-1.704;2023-06-24T03:46:05;8.38;;;4.80;;
60908;SDS011;46780;48.128;-1.704;2023-06-24T03:48:33;8.57;;;4.80;;
60908;SDS011;46780;48.128;-1.704;2023-06-24T03:51:00;10.77;;;5.00;;
60908;SDS011;46780;48.128;-1.704;2023-06-24T03:53:27;8.80;;;4.90;;
60908;SDS011;46780;48.128;-1.704;2023-06-24T03:55:53;10.00;;;4.85;;
60908;SDS011;46780;48.128;-1.704;2023-06-24T03:58:20;9.07;;;4.93;;
60908;SDS011;46780;48.128;-1.704;2023-06-24T04:00:46;10.05;;;5.32;;
60908;SDS011;46780;48.128;-1.704;2023-06-24T04:03:13;9.95;;;5.20;;
60908;SDS011;46780;48.128;-1.704;2023-06-24T04:05:42;8.88;;;5.05;;
60908;SDS011;46780;48.128;-1.704;2023-06-24T04:08:08;9.18;;;5.13;;
60908;SDS011;46780;48.128;-1.704;2023-06-24T04:10:35;10.32;;;5.22;;
60908;SDS011;46780;48.128;-1.704;2023-06-24T04:13:01;9.15;;;5.00;;
60908;SDS011;46780;48.128;-1.704;2023-06-24T04:15:28;12.25;;;5.53;;
60908;SDS011;46780;48.128;-1.704;2023-06-24T04:17:54;10.77;;;5.30;;
60908;SDS011;46780;48.128;-1.704;2023-06-24T04:20:21;13.13;;;5.35;;
60908;SDS011;46780;48.128;-1.704;2023-06-24T04:22:48;8.77;;;5.38;;
60908;SDS011;46780;48.128;-1.704;2023-06-24T04:25:15;9.20;;;5.35;;
60908;SDS011;46780;48.128;-1.704;2023-06-24T04:27:42;8.45;;;4.82;;
60908;SDS011;46780;48.128;-1.704;2023-06-24T04:30:08;11.52;;;5.32;;
60908;SDS011;46780;48.128;-1.704;2023-06-24T04:32:36;10.18;;;5.50;;
60908;SDS011;46780;48.128;-1.704;2023-06-24T04:35:03;9.65;;;5.22;;
60908;SDS011;46780;48.128;-1.704;2023-06-24T04:37:30;8.40;;;5.10;;
60908;SDS011;46780;48.128;-1.704;2023-06-24T04:39:58;9.20;;;5.20;;
60908;SDS011;46780;48.128;-1.704;2023-06-24T04:42:24;9.88;;;5.35;;
60908;SDS011;46780;48.128;-1.704;2023-06-24T04:44:50;10.07;;;5.18;;
60908;SDS011;46780;48.128;-1.704;2023-06-24T04:47:17;12.55;;;5.90;;
60908;SDS011;46780;48.128;-1.704;2023-06-24T04:49:44;10.80;;;5.65;;
60908;SDS011;46780;48.128;-1.704;2023-06-24T04:52:10;9.07;;;5.25;;
60908;SDS011;46780;48.128;-1.704;2023-06-24T04:54:37;10.48;;;5.47;;
60908;SDS011;46780;48.128;-1.704;2023-06-24T04:57:06;9.43;;;5.20;;
60908;SDS011;46780;48.128;-1.704;2023-06-24T04:59:34;11.27;;;5.80;;
60908;SDS011;46780;48.128;-1.704;2023-06-24T05:02:01;12.00;;;5.93;;
60908;SDS011;46780;48.128;-1.704;2023-06-24T05:04:27;10.00;;;5.45;;
60908;SDS011;46780;48.128;-1.704;2023-06-24T05:06:54;11.45;;;5.63;;
60908;SDS011;46780;48.128;-1.704;2023-06-24T05:09:20;10.30;;;5.60;;
60908;SDS011;46780;48.128;-1.704;2023-06-24T05:11:47;10.00;;;5.65;;
60908;SDS011;46780;48.128;-1.704;2023-06-24T05:14:15;10.88;;;5.70;;
60908;SDS011;46780;48.128;-1.704;2023-06-24T05:16:41;10.95;;;5.80;;
60908;SDS011;46780;48.128;-1.704;2023-06-24T05:19:08;11.38;;;5.93;;
60908;SDS011;46780;48.128;-1.704;2023-06-24T05:21:35;10.57;;;6.10;;
60908;SDS011;46780;48.128;-1.704;2023-06-24T05:24:07;10.98;;;5.63;;
60908;SDS011;46780;48.128;-1.704;2023-06-24T05:26:34;12.85;;;5.80;;
60908;SDS011;46780;48.128;-1.704;2023-06-24T05:29:00;12.32;;;5.45;;
60908;SDS011;46780;48.128;-1.704;2023-06-24T05:31:28;10.85;;;5.70;;
60908;SDS011;46780;48.128;-1.704;2023-06-24T05:33:55;11.75;;;6.00;;
60908;SDS011;46780;48.128;-1.704;2023-06-24T05:36:21;10.95;;;5.50;;
60908;SDS011;46780;48.128;-1.704;2023-06-24T05:38:48;10.30;;;5.72;;
60908;SDS011;46780;48.128;-1.704;2023-06-24T05:41:14;11.82;;;6.00;;
60908;SDS011;46780;48.128;-1.704;2023-06-24T05:43:42;10.40;;;5.68;;
60908;SDS011;46780;48.128;-1.704;2023-06-24T05:46:09;12.48;;;6.10;;
60908;SDS011;46780;48.128;-1.704;2023-06-24T05:48:37;10.88;;;6.00;;
60908;SDS011;46780;48.128;-1.704;2023-06-24T05:51:06;13.68;;;6.03;;
60908;SDS011;46780;48.128;-1.704;2023-06-24T05:53:33;10.57;;;6.07;;
60908;SDS011;46780;48.128;-1.704;2023-06-24T05:56:14;12.00;;;6.55;;
60908;SDS011;46780;48.128;-1.704;2023-06-24T05:58:54;12.98;;;7.47;;
60908;SDS011;46780;48.128;-1.704;2023-06-24T06:01:20;10.10;;;6.45;;
60908;SDS011;46780;48.128;-1.704;2023-06-24T06:03:48;12.65;;;7.20;;
60908;SDS011;46780;48.128;-1.704;2023-06-24T06:06:21;10.82;;;6.47;;
60908;SDS011;46780;48.128;-1.704;2023-06-24T06:09:15;13.10;;;7.10;;
60908;SDS011;46780;48.128;-1.704;2023-06-24T06:11:48;15.38;;;7.03;;
60908;SDS011;46780;48.128;-1.704;2023-06-24T06:14:28;11.98;;;6.65;;
60908;SDS011;46780;48.128;-1.704;2023-06-24T06:17:23;11.93;;;6.60;;
60908;SDS011;46780;48.128;-1.704;2023-06-24T06:23:38;10.95;;;5.93;;
60908;SDS011;46780;48.128;-1.704;2023-06-24T06:26:05;14.93;;;7.50;;
60908;SDS011;46780;48.128;-1.704;2023-06-24T06:28:31;14.90;;;7.88;;
60908;SDS011;46780;48.128;-1.704;2023-06-24T06:31:01;12.63;;;6.32;;
60908;SDS011;46780;48.128;-1.704;2023-06-24T06:33:27;10.48;;;6.30;;
60908;SDS011;46780;48.128;-1.704;2023-06-24T06:35:54;11.77;;;6.00;;
60908;SDS011;46780;48.128;-1.704;2023-06-24T06:38:20;11.20;;;5.97;;
60908;SDS011;46780;48.128;-1.704;2023-06-24T06:40:48;11.35;;;5.68;;
60908;SDS011;46780;48.128;-1.704;2023-06-24T06:43:14;11.45;;;5.70;;
60908;SDS011;46780;48.128;-1.704;2023-06-24T06:45:41;9.50;;;5.70;;
60908;SDS011;46780;48.128;-1.704;2023-06-24T06:48:07;11.60;;;5.90;;
60908;SDS011;46780;48.128;-1.704;2023-06-24T06:50:34;14.15;;;7.82;;
60908;SDS011;46780;48.128;-1.704;2023-06-24T06:53:00;12.80;;;7.78;;
60908;SDS011;46780;48.128;-1.704;2023-06-24T06:55:27;13.18;;;6.40;;
60908;SDS011;46780;48.128;-1.704;2023-06-24T06:57:54;11.55;;;6.22;;
60908;SDS011;46780;48.128;-1.704;2023-06-24T07:00:21;12.80;;;5.70;;
60908;SDS011;46780;48.128;-1.704;2023-06-24T07:02:47;10.70;;;5.68;;
60908;SDS011;46780;48.128;-1.704;2023-06-24T07:05:14;10.82;;;5.90;;
60908;SDS011;46780;48.128;-1.704;2023-06-24T07:07:41;9.50;;;5.82;;
60908;SDS011;46780;48.128;-1.704;2023-06-24T07:10:07;10.23;;;5.50;;
60908;SDS011;46780;48.128;-1.704;2023-06-24T07:12:34;10.27;;;5.70;;
60908;SDS011;46780;48.128;-1.704;2023-06-24T07:15:02;12.77;;;6.00;;
60908;SDS011;46780;48.128;-1.704;2023-06-24T07:17:29;13.95;;;5.80;;
60908;SDS011;46780;48.128;-1.704;2023-06-24T07:19:56;10.73;;;6.00;;
60908;SDS011;46780;48.128;-1.704;2023-06-24T07:22:22;11.00;;;5.93;;
60908;SDS011;46780;48.128;-1.704;2023-06-24T07:24:49;10.82;;;5.65;;
60908;SDS011;46780;48.128;-1.704;2023-06-24T07:27:16;16.05;;;6.40;;
60908;SDS011;46780;48.128;-1.704;2023-06-24T07:29:43;12.45;;;6.53;;
60908;SDS011;46780;48.128;-1.704;2023-06-24T07:32:10;10.93;;;5.82;;
60908;SDS011;46780;48.128;-1.704;2023-06-24T07:34:38;11.18;;;5.68;;
60908;SDS011;46780;48.128;-1.704;2023-06-24T07:37:05;11.15;;;6.13;;
60908;SDS011;46780;48.128;-1.704;2023-06-24T07:39:31;10.35;;;6.20;;
60908;SDS011;46780;48.128;-1.704;2023-06-24T07:41:58;10.40;;;5.75;;
60908;SDS011;46780;48.128;-1.704;2023-06-24T07:44:26;11.30;;;5.80;;
60908;SDS011;46780;48.128;-1.704;2023-06-24T07:47:01;9.60;;;6.03;;
60908;SDS011;46780;48.128;-1.704;2023-06-24T07:49:30;10.70;;;6.10;;
60908;SDS011;46780;48.128;-1.704;2023-06-24T07:51:56;10.75;;;6.28;;
60908;SDS011;46780;48.128;-1.704;2023-06-24T07:54:23;10.10;;;6.20;;
60908;SDS011;46780;48.128;-1.704;2023-06-24T07:56:49;12.65;;;6.30;;
60908;SDS011;46780;48.128;-1.704;2023-06-24T07:59:16;11.25;;;6.05;;
60908;SDS011;46780;48.128;-1.704;2023-06-24T08:01:42;11.80;;;6.30;;
60908;SDS011;46780;48.128;-1.704;2023-06-24T08:04:09;10.75;;;6.43;;
60908;SDS011;46780;48.128;-1.704;2023-06-24T08:06:37;10.68;;;6.20;;
60908;SDS011;46780;48.128;-1.704;2023-06-24T08:09:03;10.13;;;5.95;;
60908;SDS011;46780;48.128;-1.704;2023-06-24T08:11:30;12.68;;;5.80;;
60908;SDS011;46780;48.128;-1.704;2023-06-24T08:13:56;12.50;;;6.20;;
60908;SDS011;46780;48.128;-1.704;2023-06-24T08:16:23;10.35;;;5.95;;
60908;SDS011;46780;48.128;-1.704;2023-06-24T08:18:50;10.75;;;5.72;;
60908;SDS011;46780;48.128;-1.704;2023-06-24T08:21:16;13.02;;;5.95;;
60908;SDS011;46780;48.128;-1.704;2023-06-24T08:23:44;10.18;;;5.75;;
60908;SDS011;46780;48.128;-1.704;2023-06-24T08:26:12;9.75;;;5.78;;
60908;SDS011;46780;48.128;-1.704;2023-06-24T08:28:39;11.55;;;5.78;;
60908;SDS011;46780;48.128;-1.704;2023-06-24T08:31:05;10.80;;;5.45;;
60908;SDS011;46780;48.128;-1.704;2023-06-24T08:33:32;9.63;;;5.68;;
60908;SDS011;46780;48.128;-1.704;2023-06-24T08:35:58;11.15;;;5.72;;
60908;SDS011;46780;48.128;-1.704;2023-06-24T08:38:26;10.45;;;5.85;;
60908;SDS011;46780;48.128;-1.704;2023-06-24T08:40:54;10.68;;;5.63;;
60908;SDS011;46780;48.128;-1.704;2023-06-24T08:43:22;11.68;;;5.30;;
60908;SDS011;46780;48.128;-1.704;2023-06-24T08:45:49;10.63;;;5.60;;
60908;SDS011;46780;48.128;-1.704;2023-06-24T08:48:18;11.68;;;5.30;;
60908;SDS011;46780;48.128;-1.704;2023-06-24T08:50:50;10.27;;;4.80;;
60908;SDS011;46780;48.128;-1.704;2023-06-24T08:53:19;12.98;;;5.43;;
60908;SDS011;46780;48.128;-1.704;2023-06-24T08:55:58;10.95;;;5.28;;
60908;SDS011;46780;48.128;-1.704;2023-06-24T08:58:27;12.95;;;5.72;;
60908;SDS011;46780;48.128;-1.704;2023-06-24T09:00:54;11.73;;;5.13;;
60908;SDS011;46780;48.128;-1.704;2023-06-24T09:03:21;9.35;;;5.18;;
60908;SDS011;46780;48.128;-1.704;2023-06-24T09:05:48;12.30;;;4.90;;
60908;SDS011;46780;48.128;-1.704;2023-06-24T09:08:14;9.00;;;4.78;;
60908;SDS011;46780;48.128;-1.704;2023-06-24T09:10:52;9.85;;;4.65;;
60908;SDS011;46780;48.128;-1.704;2023-06-24T09:13:34;9.15;;;4.95;;
60908;SDS011;46780;48.128;-1.704;2023-06-24T09:16:11;10.13;;;4.47;;
60908;SDS011;46780;48.128;-1.704;2023-06-24T09:18:38;8.10;;;4.75;;
60908;SDS011;46780;48.128;-1.704;2023-06-24T09:21:05;10.27;;;4.88;;
60908;SDS011;46780;48.128;-1.704;2023-06-24T09:23:35;8.50;;;4.72;;
60908;SDS011;46780;48.128;-1.704;2023-06-24T09:26:06;10.05;;;4.50;;
60908;SDS011;46780;48.128;-1.704;2023-06-24T09:28:37;8.77;;;4.80;;
60908;SDS011;46780;48.128;-1.704;2023-06-24T09:31:28;11.20;;;4.90;;
60908;SDS011;46780;48.128;-1.704;2023-06-24T09:33:56;10.32;;;4.93;;
60908;SDS011;46780;48.128;-1.704;2023-06-24T09:36:23;8.65;;;4.88;;
60908;SDS011;46780;48.128;-1.704;2023-06-24T09:38:49;8.23;;;4.28;;
60908;SDS011;46780;48.128;-1.704;2023-06-24T09:41:16;7.82;;;4.20;;
60908;SDS011;46780;48.128;-1.704;2023-06-24T09:43:45;8.27;;;3.95;;
60908;SDS011;46780;48.128;-1.704;2023-06-24T09:46:11;8.77;;;4.00;;
60908;SDS011;46780;48.128;-1.704;2023-06-24T09:48:39;8.98;;;4.28;;
60908;SDS011;46780;48.128;-1.704;2023-06-24T09:51:05;8.00;;;4.30;;
60908;SDS011;46780;48.128;-1.704;2023-06-24T09:53:34;7.18;;;4.10;;
60908;SDS011;46780;48.128;-1.704;2023-06-24T09:56:01;8.07;;;4.20;;
60908;SDS011;46780;48.128;-1.704;2023-06-24T09:58:31;8.30;;;3.92;;
60908;SDS011;46780;48.128;-1.704;2023-06-24T10:01:01;7.53;;;3.92;;
60908;SDS011;46780;48.128;-1.704;2023-06-24T10:07:12;7.40;;;3.92;;
60908;SDS011;46780;48.128;-1.704;2023-06-24T10:09:50;8.50;;;4.53;;
60908;SDS011;46780;48.128;-1.704;2023-06-24T10:12:22;7.60;;;3.92;;
60908;SDS011;46780;48.128;-1.704;2023-06-24T10:14:53;8.20;;;4.25;;
60908;SDS011;46780;48.128;-1.704;2023-06-24T10:17:27;12.23;;;4.35;;
60908;SDS011;46780;48.128;-1.704;2023-06-24T10:20:08;8.65;;;4.30;;
60908;SDS011;46780;48.128;-1.704;2023-06-24T10:22:43;8.38;;;4.07;;
60908;SDS011;46780;48.128;-1.704;2023-06-24T10:25:12;8.93;;;4.28;;
60908;SDS011;46780;48.128;-1.704;2023-06-24T10:27:50;10.05;;;4.50;;
60908;SDS011;46780;48.128;-1.704;2023-06-24T10:31:09;9.35;;;4.43;;
60908;SDS011;46780;48.128;-1.704;2023-06-24T10:34:02;9.18;;;4.38;;
60908;SDS011;46780;48.128;-1.704;2023-06-24T10:36:57;9.63;;;4.53;;
60908;SDS011;46780;48.128;-1.704;2023-06-24T10:45:00;11.15;;;4.50;;
60908;SDS011;46780;48.128;-1.704;2023-06-24T10:47:27;11.82;;;4.60;;
60908;SDS011;46780;48.128;-1.704;2023-06-24T10:50:03;8.30;;;4.40;;
60908;SDS011;46780;48.128;-1.704;2023-06-24T10:52:31;8.23;;;4.18;;
60908;SDS011;46780;48.128;-1.704;2023-06-24T11:32:37;8.45;;;4.70;;
60908;SDS011;46780;48.128;-1.704;2023-06-24T11:35:13;9.45;;;4.55;;
60908;SDS011;46780;48.128;-1.704;2023-06-24T11:37:42;11.75;;;4.50;;
60908;SDS011;46780;48.128;-1.704;2023-06-24T11:40:18;7.85;;;4.40;;
60908;SDS011;46780;48.128;-1.704;2023-06-24T11:42:45;7.55;;;4.20;;
60908;SDS011;46780;48.128;-1.704;2023-06-24T11:45:12;10.75;;;4.82;;
60908;SDS011;46780;48.128;-1.704;2023-06-24T11:50:41;9.30;;;4.00;;
60908;SDS011;46780;48.128;-1.704;2023-06-24T11:53:08;8.90;;;4.53;;
60908;SDS011;46780;48.128;-1.704;2023-06-24T11:55:34;9.75;;;4.38;;
60908;SDS011;46780;48.128;-1.704;2023-06-24T11:58:01;9.15;;;4.30;;
60908;SDS011;46780;48.128;-1.704;2023-06-24T12:00:32;9.27;;;4.57;;
60908;SDS011;46780;48.128;-1.704;2023-06-24T12:09:46;9.10;;;4.28;;
60908;SDS011;46780;48.128;-1.704;2023-06-24T12:12:16;8.35;;;4.30;;
60908;SDS011;46780;48.128;-1.704;2023-06-24T12:14:44;10.52;;;4.40;;
60908;SDS011;46780;48.128;-1.704;2023-06-24T12:17:14;9.90;;;4.45;;
60908;SDS011;46780;48.128;-1.704;2023-06-24T12:19:43;9.70;;;4.53;;
60908;SDS011;46780;48.128;-1.704;2023-06-24T12:22:30;9.60;;;4.47;;
60908;SDS011;46780;48.128;-1.704;2023-06-24T12:25:21;9.20;;;4.22;;
60908;SDS011;46780;48.128;-1.704;2023-06-24T12:52:41;11.15;;;4.68;;
60908;SDS011;46780;48.128;-1.704;2023-06-24T12:58:35;10.57;;;4.68;;
60908;SDS011;46780;48.128;-1.704;2023-06-24T14:04:13;8.50;;;4.72;;
60908;SDS011;46780;48.128;-1.704;2023-06-24T14:06:42;10.45;;;4.60;;
60908;SDS011;46780;48.128;-1.704;2023-06-24T14:17:47;9.40;;;4.72;;
60908;SDS011;46780;48.128;-1.704;2023-06-24T14:20:23;9.20;;;4.63;;
60908;SDS011;46780;48.128;-1.704;2023-06-24T14:25:56;10.20;;;4.47;;
60908;SDS011;46780;48.128;-1.704;2023-06-24T14:38:51;12.50;;;4.75;;
60908;SDS011;46780;48.128;-1.704;2023-06-24T14:41:17;8.70;;;4.30;;
60908;SDS011;46780;48.128;-1.704;2023-06-24T14:43:53;9.75;;;4.40;;
60908;SDS011;46780;48.128;-1.704;2023-06-24T14:46:22;10.00;;;4.13;;
60908;SDS011;46780;48.128;-1.704;2023-06-24T14:48:49;8.70;;;5.03;;
60908;SDS011;46780;48.128;-1.704;2023-06-24T14:51:19;8.80;;;4.30;;
60908;SDS011;46780;48.128;-1.704;2023-06-24T14:53:45;9.00;;;4.63;;
60908;SDS011;46780;48.128;-1.704;2023-06-24T15:02:48;8.13;;;4.45;;
60908;SDS011;46780;48.128;-1.704;2023-06-24T15:08:33;8.45;;;4.50;;
60908;SDS011;46780;48.128;-1.704;2023-06-24T15:11:11;7.97;;;4.30;;
60908;SDS011;46780;48.128;-1.704;2023-06-24T15:13:52;9.50;;;4.38;;
60908;SDS011;46780;48.128;-1.704;2023-06-24T15:26:43;8.65;;;4.32;;
60908;SDS011;46780;48.128;-1.704;2023-06-24T15:29:10;11.38;;;4.65;;
60908;SDS011;46780;48.128;-1.704;2023-06-24T15:31:49;8.30;;;4.40;;
60908;SDS011;46780;48.128;-1.704;2023-06-24T15:34:17;9.70;;;4.47;;
60908;SDS011;46780;48.128;-1.704;2023-06-24T15:36:43;9.90;;;4.70;;
60908;SDS011;46780;48.128;-1.704;2023-06-24T15:39:11;11.30;;;4.65;;
60908;SDS011;46780;48.128;-1.704;2023-06-24T15:41:45;9.75;;;4.40;;
60908;SDS011;46780;48.128;-1.704;2023-06-24T15:44:12;8.23;;;4.45;;
60908;SDS011;46780;48.128;-1.704;2023-06-24T15:46:39;10.02;;;4.90;;
60908;SDS011;46780;48.128;-1.704;2023-06-24T16:07:04;9.45;;;5.05;;
60908;SDS011;46780;48.128;-1.704;2023-06-24T16:09:53;8.68;;;4.50;;
60908;SDS011;46780;48.128;-1.704;2023-06-24T16:12:20;8.95;;;5.00;;
60908;SDS011;46780;48.128;-1.704;2023-06-24T16:14:46;9.85;;;4.63;;
60908;SDS011;46780;48.128;-1.704;2023-06-24T16:17:13;11.88;;;5.05;;
60908;SDS011;46780;48.128;-1.704;2023-06-24T16:19:39;20.35;;;6.35;;
60908;SDS011;46780;48.128;-1.704;2023-06-24T16:22:07;11.13;;;5.45;;
60908;SDS011;46780;48.128;-1.704;2023-06-24T16:24:36;10.52;;;5.35;;
60908;SDS011;46780;48.128;-1.704;2023-06-24T16:27:11;10.65;;;4.95;;
60908;SDS011;46780;48.128;-1.704;2023-06-24T16:29:38;9.90;;;5.43;;
60908;SDS011;46780;48.128;-1.704;2023-06-24T16:32:05;10.88;;;5.20;;
60908;SDS011;46780;48.128;-1.704;2023-06-24T16:34:32;12.25;;;5.10;;
60908;SDS011;46780;48.128;-1.704;2023-06-24T16:36:58;9.38;;;5.00;;
60908;SDS011;46780;48.128;-1.704;2023-06-24T16:39:36;9.50;;;4.78;;
60908;SDS011;46780;48.128;-1.704;2023-06-24T16:42:17;10.10;;;5.30;;
60908;SDS011;46780;48.128;-1.704;2023-06-24T16:45:17;15.05;;;5.05;;
60908;SDS011;46780;48.128;-1.704;2023-06-24T16:48:22;12.55;;;5.13;;
60908;SDS011;46780;48.128;-1.704;2023-06-24T16:50:52;14.00;;;5.40;;
60908;SDS011;46780;48.128;-1.704;2023-06-24T16:53:18;9.95;;;5.22;;
60908;SDS011;46780;48.128;-1.704;2023-06-24T16:55:46;10.40;;;5.30;;
60908;SDS011;46780;48.128;-1.704;2023-06-24T16:58:13;13.10;;;5.60;;
60908;SDS011;46780;48.128;-1.704;2023-06-24T17:00:39;12.05;;;5.88;;
60908;SDS011;46780;48.128;-1.704;2023-06-24T17:03:06;11.73;;;5.38;;
60908;SDS011;46780;48.128;-1.704;2023-06-24T17:05:32;10.30;;;5.38;;
60908;SDS011;46780;48.128;-1.704;2023-06-24T17:07:58;10.73;;;5.50;;
60908;SDS011;46780;48.128;-1.704;2023-06-24T17:10:25;11.45;;;5.32;;
60908;SDS011;46780;48.128;-1.704;2023-06-24T17:12:53;10.35;;;5.47;;
60908;SDS011;46780;48.128;-1.704;2023-06-24T17:15:19;10.05;;;5.50;;
60908;SDS011;46780;48.128;-1.704;2023-06-24T17:17:46;10.43;;;5.60;;
60908;SDS011;46780;48.128;-1.704;2023-06-24T17:20:12;12.48;;;6.00;;
60908;SDS011;46780;48.128;-1.704;2023-06-24T17:22:38;11.13;;;6.13;;
60908;SDS011;46780;48.128;-1.704;2023-06-24T17:25:05;10.55;;;6.18;;
60908;SDS011;46780;48.128;-1.704;2023-06-24T17:27:32;11.38;;;5.85;;
60908;SDS011;46780;48.128;-1.704;2023-06-24T17:30:00;11.52;;;6.00;;
60908;SDS011;46780;48.128;-1.704;2023-06-24T17:32:26;10.32;;;5.70;;
60908;SDS011;46780;48.128;-1.704;2023-06-24T17:34:53;11.63;;;5.80;;
60908;SDS011;46780;48.128;-1.704;2023-06-24T17:37:19;10.68;;;5.80;;
60908;SDS011;46780;48.128;-1.704;2023-06-24T17:39:46;12.05;;;5.05;;
60908;SDS011;46780;48.128;-1.704;2023-06-24T17:42:12;10.30;;;5.90;;
60908;SDS011;46780;48.128;-1.704;2023-06-24T17:44:39;11.15;;;5.75;;
60908;SDS011;46780;48.128;-1.704;2023-06-24T17:47:07;11.93;;;5.82;;
60908;SDS011;46780;48.128;-1.704;2023-06-24T17:49:33;11.73;;;5.53;;
60908;SDS011;46780;48.128;-1.704;2023-06-24T17:52:00;11.77;;;5.78;;
60908;SDS011;46780;48.128;-1.704;2023-06-24T17:54:26;12.40;;;5.63;;
60908;SDS011;46780;48.128;-1.704;2023-06-24T17:56:53;11.68;;;5.63;;
60908;SDS011;46780;48.128;-1.704;2023-06-24T17:59:19;10.32;;;5.35;;
60908;SDS011;46780;48.128;-1.704;2023-06-24T18:01:46;10.85;;;5.75;;
60908;SDS011;46780;48.128;-1.704;2023-06-24T18:04:14;11.07;;;5.40;;
60908;SDS011;46780;48.128;-1.704;2023-06-24T18:06:40;15.25;;;5.70;;
60908;SDS011;46780;48.128;-1.704;2023-06-24T18:09:07;10.52;;;5.55;;
60908;SDS011;46780;48.128;-1.704;2023-06-24T18:11:33;9.48;;;5.40;;